Terminal Aerodrome Forecast
Issued by NWS Cleveland, OH

Home | Current Version | Previous Version | Graphics & Text | Print | Product List | Glossary On
Versions: 1 2 3 4 5 6 7 8 9 10 11 12 13 14 15 16 17 18 19 20 21 22 23 24 25 26 27 28 29
000
FTUS41 KCLE 280900 AAB
TAFCLE
TAF AMD
KCLE 280901Z 2809/2912 25006KT P6SM VCSH SCT020 BKN035
      TEMPO 2809/2811 3SM BR OVC016
     FM281100 32010KT 6SM -SHRA BR OVC018
      TEMPO 2811/2815 32015G22KT 3SM SHRA BR OVC008
     FM281500 34015G22KT 6SM BR VCSH BKN012 OVC035
     FM281800 34018G25KT P6SM BKN025
     FM290000 35008KT P6SM BKN030
     FM290500 28005KT P6SM SCT030=

USA.gov is the U.S. government's official web portal to all federal, state and local government web resources and services.